createdAt,value
2019-02-27T00:01:54.830Z,11.10
2019-02-27T00:04:23.337Z,12.50
2019-02-27T00:06:51.957Z,12.40
2019-02-27T00:09:20.509Z,13.07
2019-02-27T00:11:49.367Z,12.73
2019-02-27T00:14:17.906Z,12.73
2019-02-27T00:16:46.413Z,11.93
2019-02-27T00:19:14.861Z,12.60
2019-02-27T00:21:44.321Z,13.30
2019-02-27T00:24:12.125Z,14.55
2019-02-27T00:26:42.528Z,13.77
2019-02-27T00:29:09.769Z,13.60
2019-02-27T00:31:38.599Z,15.23
2019-02-27T00:34:07.305Z,12.90
2019-02-27T00:36:35.757Z,12.93
2019-02-27T00:39:05.558Z,11.50
2019-02-27T00:41:34.273Z,13.23
2019-02-27T00:44:02.882Z,12.17
2019-02-27T00:46:31.381Z,14.10
2019-02-27T00:49:00.681Z,12.13
2019-02-27T00:51:29.186Z,12.40
2019-02-27T00:53:58.452Z,12.73
2019-02-27T00:56:26.561Z,12.43
2019-02-27T00:58:55.073Z,12.63
2019-02-27T01:01:23.540Z,12.27
2019-02-27T01:03:52.565Z,10.83
2019-02-27T01:06:21.077Z,10.60
2019-02-27T01:08:49.521Z,10.07
2019-02-27T01:11:18.958Z,9.73
2019-02-27T01:13:47.158Z,9.20
2019-02-27T01:16:17.231Z,9.97
2019-02-27T01:18:44.529Z,9.57
2019-02-27T01:21:13.285Z,9.23
2019-02-27T01:23:44.636Z,8.43
2019-02-27T01:26:10.397Z,8.28
2019-02-27T01:28:38.901Z,7.13
2019-02-27T01:31:07.509Z,7.07
2019-02-27T01:33:38.245Z,7.53
2019-02-27T01:36:04.921Z,7.13
2019-02-27T01:38:37.658Z,6.40
2019-02-27T01:41:02.013Z,7.13
2019-02-27T01:43:30.553Z,7.77
2019-02-27T01:45:59.029Z,7.60
2019-02-27T01:48:27.588Z,6.33
2019-02-27T01:50:56.059Z,6.40
2019-02-27T01:53:24.526Z,6.70
2019-02-27T01:55:56.204Z,6.60
2019-02-27T01:58:21.869Z,7.33
2019-02-27T02:00:50.541Z,6.63
2019-02-27T02:03:19.011Z,7.60
2019-02-27T02:05:47.512Z,7.93
2019-02-27T02:08:16.152Z,7.90
2019-02-27T02:10:45.064Z,8.03
2019-02-27T02:13:16.801Z,8.13
2019-02-27T02:17:05.028Z,7.47
2019-02-27T02:19:42.093Z,7.27
2019-02-27T02:22:28.049Z,7.50
2019-02-27T02:27:19.772Z,8.07
2019-02-27T02:30:05.838Z,7.13
2019-02-27T02:32:52.330Z,7.97
2019-02-27T02:35:34.988Z,7.47
2019-02-27T02:38:21.645Z,7.60
2019-02-27T02:43:05.247Z,7.97
2019-02-27T02:45:42.524Z,7.80
2019-02-27T02:49:27.412Z,7.73
2019-02-27T02:52:05.930Z,9.73
2019-02-27T02:54:43.676Z,11.40
2019-02-27T02:58:23.609Z,12.87
2019-02-27T03:01:03.098Z,13.60
2019-02-27T03:05:23.285Z,16.87
2019-02-27T03:08:00.925Z,17.70
2019-02-27T03:10:42.894Z,21.87
2019-02-27T03:13:22.688Z,21.00
2019-02-27T03:17:06.349Z,23.53
2019-02-27T03:19:48.628Z,24.13
2019-02-27T03:22:41.641Z,25.63
2019-02-27T03:25:23.485Z,25.93
2019-02-27T03:28:05.878Z,24.63
2019-02-27T03:30:44.305Z,26.87
2019-02-27T03:37:31.880Z,26.73
2019-02-27T03:40:14.448Z,25.20
2019-02-27T03:43:11.725Z,26.87
2019-02-27T03:46:20.372Z,26.73
2019-02-27T03:51:04.244Z,25.30
2019-02-27T03:53:43.245Z,24.13
2019-02-27T03:56:43.476Z,24.83
2019-02-27T03:59:45.987Z,21.63
2019-02-27T04:02:26.421Z,21.60
2019-02-27T04:05:13.439Z,19.80
2019-02-27T04:07:52.264Z,19.17
2019-02-27T04:10:20.754Z,19.23
2019-02-27T04:12:51.655Z,20.30
2019-02-27T04:15:18.933Z,19.57
2019-02-27T04:17:51.838Z,19.73
2019-02-27T04:20:15.653Z,18.03
2019-02-27T04:22:44.008Z,17.87
2019-02-27T04:25:12.508Z,17.20
2019-02-27T04:27:41.334Z,17.60
2019-02-27T04:30:14.671Z,15.47
2019-02-27T04:32:38.822Z,17.20
2019-02-27T04:35:07.483Z,18.87
2019-02-27T04:37:35.933Z,19.07
2019-02-27T04:40:05.380Z,18.43
2019-02-27T04:42:33.848Z,15.37
2019-02-27T04:45:02.619Z,14.73
2019-02-27T04:47:31.439Z,13.50
2019-02-27T04:50:01.275Z,14.37
2019-02-27T04:52:30.107Z,14.90
2019-02-27T04:54:59.549Z,14.73
2019-02-27T04:57:30.812Z,15.37
2019-02-27T04:59:56.963Z,13.67
2019-02-27T05:02:25.507Z,11.60
2019-02-27T05:04:54.055Z,13.63
2019-02-27T05:07:22.759Z,11.97
2019-02-27T05:09:51.239Z,13.27
2019-02-27T05:12:19.683Z,13.77
2019-02-27T05:14:48.503Z,14.17
2019-02-27T05:17:21.205Z,13.57
2019-02-27T05:19:46.159Z,13.03
2019-02-27T05:22:14.607Z,17.07
2019-02-27T05:24:43.202Z,14.50
2019-02-27T05:27:12.007Z,15.03
2019-02-27T05:29:40.956Z,15.67
2019-02-27T05:32:09.562Z,14.50
2019-02-27T05:34:38.015Z,14.53
2019-02-27T05:37:06.610Z,14.23
2019-02-27T05:39:35.079Z,13.83
2019-02-27T05:42:06.133Z,12.40
2019-02-27T05:44:32.802Z,12.33
2019-02-27T05:47:01.250Z,12.80
2019-02-27T05:49:29.927Z,12.33
2019-02-27T05:51:58.584Z,12.23
2019-02-27T05:54:27.195Z,11.73
2019-02-27T05:56:56.357Z,12.23
2019-02-27T05:59:29.138Z,11.90
2019-02-27T06:01:53.583Z,12.13
2019-02-27T06:04:24.970Z,11.87
2019-02-27T06:06:51.036Z,11.87
2019-02-27T06:09:19.739Z,12.47
2019-02-27T06:11:48.211Z,12.27
2019-02-27T06:14:21.147Z,12.07
2019-02-27T06:16:45.292Z,12.00
2019-02-27T06:19:13.805Z,13.08
2019-02-27T06:21:42.456Z,12.27
2019-02-27T06:24:12.457Z,12.93
2019-02-27T06:26:39.527Z,14.37
2019-02-27T06:29:08.397Z,16.37
2019-02-27T06:31:39.434Z,16.53
2019-02-27T06:34:05.756Z,19.07
2019-02-27T06:36:34.284Z,18.20
2019-02-27T06:39:03.095Z,17.93
2019-02-27T06:41:32.007Z,19.27
2019-02-27T06:44:01.488Z,21.47
2019-02-27T06:46:29.147Z,20.87
2019-02-27T06:48:57.635Z,20.17
2019-02-27T06:51:26.198Z,19.77
2019-02-27T06:53:54.673Z,17.40
2019-02-27T06:56:23.430Z,19.13
2019-02-27T06:58:52.306Z,16.13
2019-02-27T07:01:22.007Z,16.23
2019-02-27T07:03:50.803Z,16.23
2019-02-27T07:06:21.654Z,15.33
2019-02-27T07:08:49.330Z,15.63
2019-02-27T07:11:17.817Z,14.67
2019-02-27T07:13:46.328Z,13.03
2019-02-27T07:16:14.921Z,13.98
2019-02-27T07:18:43.391Z,14.03
2019-02-27T07:21:12.088Z,11.27
2019-02-27T07:23:40.563Z,12.50
2019-02-27T07:26:09.067Z,11.87
2019-02-27T07:28:37.587Z,12.00
2019-02-27T07:31:06.075Z,13.53
2019-02-27T07:33:40.150Z,12.70
2019-02-27T07:36:04.725Z,13.70
2019-02-27T07:38:33.427Z,12.73
2019-02-27T07:41:01.910Z,10.17
2019-02-27T07:43:30.424Z,10.10
2019-02-27T07:45:59.311Z,10.40
2019-02-27T07:48:27.797Z,10.03
2019-02-27T07:50:56.307Z,9.85
2019-02-27T07:53:25.690Z,9.03
2019-02-27T07:55:53.538Z,10.60
2019-02-27T07:58:22.426Z,10.73
2019-02-27T08:00:51.032Z,8.73
2019-02-27T08:03:19.546Z,10.00
2019-02-27T08:05:47.992Z,9.67
2019-02-27T08:10:52.058Z,9.37
2019-02-27T08:13:20.906Z,11.53
2019-02-27T08:15:49.499Z,11.83
2019-02-27T08:18:23.156Z,11.73
2019-02-27T08:20:48.054Z,11.60
2019-02-27T08:23:15.795Z,10.20
2019-02-27T08:25:44.274Z,10.95
2019-02-27T08:28:13.014Z,10.57
2019-02-27T08:30:41.711Z,9.33
2019-02-27T08:33:10.202Z,10.40
2019-02-27T08:35:38.670Z,8.90
2019-02-27T08:38:07.190Z,9.73
2019-02-27T08:40:35.678Z,9.73
2019-02-27T08:43:04.939Z,8.47
2019-02-27T08:45:33.474Z,9.53
2019-02-27T08:48:01.926Z,11.22
2019-02-27T08:50:31.669Z,9.73
2019-02-27T08:52:58.934Z,9.40
2019-02-27T08:55:27.364Z,9.87
2019-02-27T08:57:57.041Z,10.32
2019-02-27T09:00:24.982Z,10.23
2019-02-27T09:02:55.544Z,10.78
2019-02-27T09:05:22.562Z,11.35
2019-02-27T09:07:51.102Z,9.37
2019-02-27T09:10:19.663Z,10.33
2019-02-27T09:12:49.535Z,11.15
2019-02-27T09:15:17.534Z,10.95
2019-02-27T09:17:46.091Z,11.20
2019-02-27T09:20:19.241Z,12.43
2019-02-27T09:22:43.674Z,10.93
2019-02-27T09:25:12.277Z,10.73
2019-02-27T09:27:40.746Z,10.63
2019-02-27T09:30:10.866Z,11.68
2019-02-27T09:32:39.330Z,11.35
2019-02-27T09:35:08.610Z,10.88
2019-02-27T09:37:37.113Z,10.85
2019-02-27T09:40:07.174Z,11.50
2019-02-27T09:42:35.653Z,10.10
2019-02-27T09:45:04.246Z,11.78
2019-02-27T09:47:33.274Z,12.93
2019-02-27T09:50:01.743Z,10.88
2019-02-27T09:52:30.769Z,10.93
2019-02-27T09:54:58.752Z,11.93
2019-02-27T09:57:27.229Z,11.33
2019-02-27T09:59:56.973Z,11.75
2019-02-27T10:02:25.508Z,12.80
2019-02-27T10:04:54.059Z,11.33
2019-02-27T10:07:22.802Z,11.68
2019-02-27T10:09:51.646Z,10.63
2019-02-27T10:12:20.130Z,12.45
2019-02-27T10:14:50.261Z,10.72
2019-02-27T10:17:17.774Z,9.90
2019-02-27T10:19:46.259Z,10.15
2019-02-27T10:22:17.850Z,10.88
2019-02-27T10:24:44.340Z,11.00
2019-02-27T10:27:13.138Z,10.57
2019-02-27T10:29:41.921Z,9.33
2019-02-27T10:32:10.400Z,9.15
2019-02-27T10:34:38.874Z,8.88
2019-02-27T10:37:07.491Z,8.78
2019-02-27T10:39:37.044Z,9.93
2019-02-27T10:42:05.017Z,10.40
2019-02-27T10:44:33.933Z,9.18
2019-02-27T10:47:02.402Z,10.25
2019-02-27T10:49:30.929Z,10.48
2019-02-27T10:51:59.901Z,10.48
2019-02-27T10:54:28.839Z,9.70
2019-02-27T10:56:57.301Z,9.00
2019-02-27T10:59:25.832Z,8.15
2019-02-27T11:01:54.381Z,9.50
2019-02-27T11:04:23.193Z,8.85
2019-02-27T11:06:51.701Z,8.45
2019-02-27T11:09:25.104Z,9.63
2019-02-27T11:11:54.601Z,8.45
2019-02-27T11:14:22.896Z,9.03
2019-02-27T11:16:52.053Z,8.48
2019-02-27T11:19:20.537Z,8.50
2019-02-27T11:21:49.401Z,11.08
2019-02-27T11:24:17.876Z,8.25
2019-02-27T11:26:46.684Z,9.95
2019-02-27T11:29:15.192Z,9.68
2019-02-27T11:31:45.597Z,10.43
2019-02-27T11:34:13.708Z,9.45
2019-02-27T11:36:42.249Z,10.28
2019-02-27T11:39:10.868Z,10.82
2019-02-27T11:41:39.560Z,13.40
2019-02-27T11:44:08.088Z,13.75
2019-02-27T11:46:38.267Z,12.33
2019-02-27T11:49:05.732Z,11.55
2019-02-27T11:51:34.264Z,13.48
2019-02-27T11:54:04.288Z,14.03
2019-02-27T11:56:31.649Z,14.53
2019-02-27T11:59:00.109Z,16.15
2019-02-27T12:01:28.633Z,14.35
2019-02-27T12:03:57.166Z,14.30
2019-02-27T12:06:25.981Z,14.47
2019-02-27T12:08:54.480Z,13.25
2019-02-27T12:11:22.936Z,11.87
2019-02-27T12:13:51.424Z,14.18
2019-02-27T12:16:19.967Z,13.97
2019-02-27T12:18:48.464Z,15.48
2019-02-27T12:21:16.936Z,15.87
2019-02-27T12:23:45.492Z,14.98
2019-02-27T12:26:13.964Z,15.37
2019-02-27T12:28:42.984Z,17.40
2019-02-27T12:31:14.137Z,16.10
2019-02-27T12:33:40.072Z,17.05
2019-02-27T12:36:09.708Z,16.97
2019-02-27T12:38:39.344Z,15.60
2019-02-27T12:41:07.902Z,16.02
2019-02-27T12:43:36.729Z,17.27
2019-02-27T12:46:05.200Z,17.27
2019-02-27T12:48:33.961Z,16.45
2019-02-27T12:51:03.647Z,16.77
2019-02-27T12:53:31.556Z,16.52
2019-02-27T12:56:00.034Z,16.10
2019-02-27T12:58:28.608Z,16.60
2019-02-27T13:00:57.108Z,17.90
2019-02-27T13:03:25.700Z,16.57
2019-02-27T13:05:54.216Z,16.55
2019-02-27T13:08:22.687Z,17.15
2019-02-27T13:10:51.380Z,16.65
2019-02-27T13:13:25.459Z,17.12
2019-02-27T13:16:07.392Z,17.05
2019-02-27T13:18:35.879Z,16.67
2019-02-27T13:21:05.004Z,18.07
2019-02-27T13:23:36.359Z,18.00
2019-02-27T13:26:02.412Z,18.23
2019-02-27T13:28:31.252Z,20.02
2019-02-27T13:30:59.781Z,17.67
2019-02-27T13:33:28.896Z,18.20
2019-02-27T13:35:59.789Z,18.32
2019-02-27T13:38:25.881Z,19.30
2019-02-27T13:40:54.399Z,21.30
2019-02-27T13:43:24.449Z,19.00
2019-02-27T13:45:51.769Z,19.42
2019-02-27T13:48:20.279Z,18.30
2019-02-27T13:50:49.063Z,19.85
2019-02-27T13:53:17.523Z,17.80
2019-02-27T13:55:48.250Z,19.77
2019-02-27T13:58:14.926Z,19.90
2019-02-27T14:00:43.450Z,20.72
2019-02-27T14:03:13.978Z,21.70
2019-02-27T14:05:42.547Z,20.08
2019-02-27T14:08:11.398Z,18.90
2019-02-27T14:10:39.983Z,19.05
2019-02-27T14:13:09.759Z,19.62
2019-02-27T14:15:37.107Z,19.32
2019-02-27T14:18:05.962Z,18.77
2019-02-27T14:20:34.990Z,19.12
2019-02-27T14:23:03.502Z,22.02
2019-02-27T14:25:33.260Z,20.50
2019-02-27T14:28:00.661Z,21.55
2019-02-27T14:30:32.058Z,24.37
2019-02-27T14:33:00.832Z,23.45
2019-02-27T14:35:35.284Z,27.50
2019-02-27T14:37:58.185Z,27.70
2019-02-27T14:40:26.702Z,20.80
2019-02-27T14:42:55.429Z,21.82
2019-02-27T14:45:24.031Z,19.52
2019-02-27T14:47:52.541Z,18.05
2019-02-27T14:50:21.685Z,18.45
2019-02-27T14:52:51.061Z,17.75
2019-02-27T14:55:20.025Z,17.23
2019-02-27T14:57:51.083Z,16.50
2019-02-27T15:00:19.649Z,17.02
2019-02-27T15:02:48.243Z,17.75
2019-02-27T15:05:17.159Z,17.45
2019-02-27T15:07:46.803Z,17.05
2019-02-27T15:10:15.519Z,16.83
2019-02-27T15:12:44.079Z,18.67
2019-02-27T15:15:15.631Z,17.37
2019-02-27T15:17:44.500Z,16.97
2019-02-27T15:20:13.947Z,17.73
2019-02-27T15:22:42.775Z,17.65
2019-02-27T15:25:12.963Z,16.95
2019-02-27T15:27:41.478Z,18.55
2019-02-27T15:30:13.179Z,17.15
2019-02-27T15:32:41.096Z,17.42
2019-02-27T15:35:10.043Z,16.80
2019-02-27T15:37:38.828Z,16.82
2019-02-27T15:40:08.434Z,16.55
2019-02-27T15:42:37.187Z,17.77
2019-02-27T15:45:09.981Z,18.06
2019-02-27T15:47:35.739Z,18.12
2019-02-27T15:50:04.519Z,18.32
2019-02-27T15:52:34.167Z,18.57
2019-02-27T15:55:02.166Z,18.05
2019-02-27T15:57:31.182Z,18.60
2019-02-27T15:59:59.282Z,17.73
2019-02-27T16:02:29.314Z,17.50
2019-02-27T16:04:57.502Z,16.52
2019-02-27T16:07:26.093Z,16.73
2019-02-27T16:09:54.582Z,16.75
2019-02-27T16:12:25.373Z,17.87
2019-02-27T16:14:51.627Z,16.17
2019-02-27T16:17:20.149Z,18.00
2019-02-27T16:19:49.329Z,16.40
2019-02-27T16:22:17.904Z,15.63
2019-02-27T16:24:46.396Z,17.32
2019-02-27T16:27:14.986Z,17.73
2019-02-27T16:29:43.560Z,16.12
2019-02-27T16:32:13.436Z,17.15
2019-02-27T16:34:40.651Z,16.97
2019-02-27T16:37:09.152Z,15.78
2019-02-27T16:39:40.875Z,14.45
2019-02-27T16:42:06.653Z,14.15
2019-02-27T16:44:35.185Z,15.08
2019-02-27T16:47:04.365Z,14.43
2019-02-27T16:49:32.849Z,15.08
2019-02-27T16:52:01.334Z,14.33
2019-02-27T16:54:30.873Z,14.98
2019-02-27T16:56:59.463Z,16.45
2019-02-27T16:59:28.339Z,18.57
2019-02-27T17:01:56.829Z,18.65
2019-02-27T17:04:25.344Z,19.32
2019-02-27T17:06:53.837Z,20.50
2019-02-27T17:09:22.809Z,22.82
2019-02-27T17:11:51.317Z,21.25
2019-02-27T17:14:23.589Z,20.43
2019-02-27T17:16:48.841Z,19.12
2019-02-27T17:19:17.317Z,19.98
2019-02-27T17:21:45.809Z,19.15
2019-02-27T17:24:14.337Z,18.60
2019-02-27T17:26:43.065Z,20.20
2019-02-27T17:29:11.592Z,19.43
2019-02-27T17:31:48.803Z,19.73
2019-02-27T17:34:13.476Z,21.02
2019-02-27T17:36:37.661Z,21.77
2019-02-27T17:39:06.533Z,18.92
2019-02-27T17:41:35.068Z,20.75
2019-02-27T17:44:05.189Z,19.42
2019-02-27T17:46:32.169Z,18.73
2019-02-27T17:49:00.937Z,18.98
2019-02-27T17:51:31.129Z,19.23
2019-02-27T17:53:58.735Z,20.12
2019-02-27T17:56:26.837Z,20.30
2019-02-27T17:58:56.116Z,20.08
2019-02-27T18:01:26.119Z,18.77
2019-02-27T18:03:53.688Z,19.48
2019-02-27T18:06:22.197Z,20.65
2019-02-27T18:08:52.428Z,18.67
2019-02-27T18:11:19.400Z,19.52
2019-02-27T18:13:47.868Z,20.32
2019-02-27T18:16:17.071Z,19.92
2019-02-27T18:18:45.582Z,20.17
2019-02-27T18:21:14.161Z,20.02
2019-02-27T18:23:42.693Z,19.70
2019-02-27T18:26:12.313Z,21.17
2019-02-27T18:28:39.670Z,21.52
2019-02-27T18:31:08.222Z,19.60
2019-02-27T18:33:36.758Z,19.07
2019-02-27T18:36:05.973Z,19.30
2019-02-27T18:38:34.324Z,19.48
2019-02-27T18:41:02.855Z,17.67
2019-02-27T18:43:31.326Z,20.43
2019-02-27T18:45:59.885Z,18.73
2019-02-27T18:48:28.418Z,18.35
2019-02-27T18:50:58.701Z,17.37
2019-02-27T18:53:25.595Z,16.42
2019-02-27T18:55:54.339Z,18.12
2019-02-27T18:58:22.864Z,17.57
2019-02-27T19:00:51.395Z,17.00
2019-02-27T19:03:19.910Z,18.42
2019-02-27T19:05:48.370Z,19.17
2019-02-27T19:08:16.942Z,18.65
2019-02-27T19:10:45.552Z,20.32
2019-02-27T19:13:14.179Z,20.40
2019-02-27T19:15:45.696Z,18.80
2019-02-27T19:18:11.454Z,19.75
2019-02-27T19:20:40.500Z,18.80
2019-02-27T19:23:09.067Z,17.12
2019-02-27T19:25:37.955Z,16.50
2019-02-27T19:28:06.820Z,17.60
2019-02-27T19:30:35.364Z,16.80
2019-02-27T19:33:03.971Z,17.00
2019-02-27T19:35:32.568Z,18.02
2019-02-27T19:38:01.036Z,18.98
2019-02-27T19:40:30.579Z,20.15
2019-02-27T19:43:00.204Z,16.37
2019-02-27T19:45:28.749Z,16.45
2019-02-27T19:47:57.295Z,18.65
2019-02-27T19:50:25.960Z,14.55
2019-02-27T19:52:54.471Z,15.90
2019-02-27T19:55:26.529Z,15.98
2019-02-27T19:57:51.874Z,17.40
2019-02-27T20:00:22.401Z,17.57
2019-02-27T20:02:55.257Z,19.40
2019-02-27T20:05:20.297Z,29.02
2019-02-27T20:07:50.454Z,22.93
2019-02-27T20:10:17.698Z,20.05
2019-02-27T20:12:47.770Z,20.45
2019-02-27T20:15:15.796Z,19.85
2019-02-27T20:17:44.495Z,22.75
2019-02-27T20:20:14.221Z,22.22
2019-02-27T20:22:42.930Z,20.68
2019-02-27T20:25:13.106Z,21.20
2019-02-27T20:27:42.024Z,22.52
2019-02-27T20:30:14.323Z,21.77
2019-02-27T20:32:42.426Z,22.22
2019-02-27T20:35:11.448Z,22.20
2019-02-27T20:37:41.268Z,23.77
2019-02-27T20:40:08.854Z,21.65
2019-02-27T20:42:37.439Z,22.45
2019-02-27T20:45:08.636Z,21.68
2019-02-27T20:47:36.680Z,21.62
2019-02-27T20:50:06.277Z,21.30
2019-02-27T20:52:34.771Z,22.02
2019-02-27T20:55:03.356Z,22.27
2019-02-27T20:57:32.271Z,21.30
2019-02-27T21:00:02.783Z,23.52
2019-02-27T21:02:30.169Z,21.90
2019-02-27T21:04:58.743Z,22.22
2019-02-27T21:07:27.339Z,23.23
2019-02-27T21:09:56.199Z,23.20
2019-02-27T21:12:24.819Z,22.40
2019-02-27T21:14:55.166Z,22.50
2019-02-27T21:17:22.300Z,23.32
2019-02-27T21:19:52.450Z,23.30
2019-02-27T21:22:19.394Z,24.60
2019-02-27T21:24:47.907Z,24.27
2019-02-27T21:27:16.491Z,24.60
2019-02-27T21:29:45.120Z,24.82
2019-02-27T21:32:13.727Z,27.80
2019-02-27T21:34:42.171Z,27.73
2019-02-27T21:37:11.195Z,28.07
2019-02-27T21:39:39.742Z,27.02
2019-02-27T21:42:08.414Z,28.65
2019-02-27T21:44:37.679Z,29.57
2019-02-27T21:47:06.238Z,30.17
2019-02-27T21:49:34.707Z,24.40
2019-02-27T21:52:03.258Z,22.83
2019-02-27T21:54:32.046Z,24.47
2019-02-27T21:57:00.550Z,23.03
2019-02-27T21:59:29.018Z,24.55
2019-02-27T22:01:57.859Z,25.43
2019-02-27T22:04:26.430Z,25.62
2019-02-27T22:06:59.511Z,24.67
2019-02-27T22:09:29.410Z,21.95
2019-02-27T22:12:00.872Z,24.18
2019-02-27T22:14:26.478Z,22.40
2019-02-27T22:16:55.002Z,24.20
2019-02-27T22:19:23.502Z,23.27
2019-02-27T22:21:52.018Z,24.47
2019-02-27T22:24:21.502Z,23.77
2019-02-27T22:26:49.378Z,19.20
2019-02-27T22:29:18.483Z,22.87
2019-02-27T22:31:46.955Z,18.50
2019-02-27T22:34:15.662Z,22.17
2019-02-27T22:36:45.103Z,22.52
2019-02-27T22:39:13.330Z,19.97
2019-02-27T22:41:41.855Z,20.92
2019-02-27T22:44:13.940Z,21.33
2019-02-27T22:46:42.623Z,21.45
2019-02-27T22:49:11.132Z,22.30
2019-02-27T22:51:39.627Z,22.60
2019-02-27T22:54:10.818Z,21.15
2019-02-27T22:56:39.309Z,20.52
2019-02-27T22:59:07.799Z,22.40
2019-02-27T23:01:43.701Z,21.63
2019-02-27T23:04:12.257Z,21.40
2019-02-27T23:06:43.774Z,21.20
2019-02-27T23:09:11.410Z,21.40
2019-02-27T23:11:40.318Z,21.03
2019-02-27T23:14:08.841Z,20.20
2019-02-27T23:16:37.321Z,19.90
2019-02-27T23:19:05.922Z,20.32
2019-02-27T23:21:34.518Z,19.63
2019-02-27T23:24:02.978Z,19.42
2019-02-27T23:26:31.458Z,21.07
2019-02-27T23:28:59.978Z,19.43
2019-02-27T23:31:28.741Z,20.05
2019-02-27T23:33:57.486Z,20.60
2019-02-27T23:36:26.025Z,19.53
2019-02-27T23:38:54.781Z,20.02
2019-02-27T23:41:23.917Z,19.90
2019-02-27T23:43:52.121Z,19.60
2019-02-27T23:46:20.957Z,19.62
2019-02-27T23:48:49.770Z,19.63
2019-02-27T23:51:18.249Z,18.90
2019-02-27T23:53:46.777Z,17.57
2019-02-27T23:56:19.353Z,18.48
2019-02-27T23:58:43.817Z,18.73
